sensor_id;sensor_type;location;lat;lon;timestamp;P1;durP1;ratioP1;P2;durP2;ratioP2
30080;SDS011;16902;50.816;12.828;2023-12-28T00:03:52;12.20;;;11.80;;
30080;SDS011;16902;50.816;12.828;2023-12-28T00:08:54;13.05;;;12.55;;
30080;SDS011;16902;50.816;12.828;2023-12-28T00:14:05;12.88;;;12.38;;
30080;SDS011;16902;50.816;12.828;2023-12-28T00:19:07;13.10;;;12.60;;
30080;SDS011;16902;50.816;12.828;2023-12-28T00:24:09;14.18;;;13.57;;
30080;SDS011;16902;50.816;12.828;2023-12-28T00:29:11;14.07;;;13.57;;
30080;SDS011;16902;50.816;12.828;2023-12-28T00:34:12;14.77;;;14.18;;
30080;SDS011;16902;50.816;12.828;2023-12-28T00:39:14;14.32;;;13.82;;
30080;SDS011;16902;50.816;12.828;2023-12-28T00:44:16;14.52;;;14.02;;
30080;SDS011;16902;50.816;12.828;2023-12-28T00:49:18;13.90;;;13.40;;
30080;SDS011;16902;50.816;12.828;2023-12-28T00:54:20;13.90;;;13.40;;
30080;SDS011;16902;50.816;12.828;2023-12-28T00:59:21;14.20;;;13.60;;
30080;SDS011;16902;50.816;12.828;2023-12-28T01:04:23;14.40;;;13.80;;
30080;SDS011;16902;50.816;12.828;2023-12-28T01:09:25;14.50;;;13.80;;
30080;SDS011;16902;50.816;12.828;2023-12-28T01:14:27;14.52;;;14.02;;
30080;SDS011;16902;50.816;12.828;2023-12-28T01:19:28;14.43;;;13.93;;
30080;SDS011;16902;50.816;12.828;2023-12-28T01:24:30;14.43;;;13.90;;
30080;SDS011;16902;50.816;12.828;2023-12-28T01:29:32;14.85;;;14.25;;
30080;SDS011;16902;50.816;12.828;2023-12-28T01:34:35;14.73;;;14.13;;
30080;SDS011;16902;50.816;12.828;2023-12-28T01:39:37;14.68;;;14.13;;
30080;SDS011;16902;50.816;12.828;2023-12-28T01:44:39;14.60;;;14.00;;
30080;SDS011;16902;50.816;12.828;2023-12-28T01:49:40;14.55;;;13.95;;
30080;SDS011;16902;50.816;12.828;2023-12-28T01:54:43;15.07;;;14.48;;
30080;SDS011;16902;50.816;12.828;2023-12-28T01:59:45;15.68;;;15.02;;
30080;SDS011;16902;50.816;12.828;2023-12-28T02:04:50;15.98;;;15.27;;
30080;SDS011;16902;50.816;12.828;2023-12-28T02:09:52;16.52;;;15.77;;
30080;SDS011;16902;50.816;12.828;2023-12-28T02:14:54;16.60;;;15.90;;
30080;SDS011;16902;50.816;12.828;2023-12-28T02:19:56;16.00;;;15.40;;
30080;SDS011;16902;50.816;12.828;2023-12-28T02:25:04;15.70;;;15.07;;
30080;SDS011;16902;50.816;12.828;2023-12-28T02:30:07;16.67;;;15.98;;
30080;SDS011;16902;50.816;12.828;2023-12-28T02:35:23;16.25;;;15.65;;
30080;SDS011;16902;50.816;12.828;2023-12-28T02:40:36;15.57;;;14.95;;
30080;SDS011;16902;50.816;12.828;2023-12-28T02:45:42;15.98;;;15.38;;
30080;SDS011;16902;50.816;12.828;2023-12-28T02:50:44;16.25;;;15.55;;
30080;SDS011;16902;50.816;12.828;2023-12-28T02:55:46;16.77;;;16.08;;
30080;SDS011;16902;50.816;12.828;2023-12-28T03:00:48;16.70;;;16.00;;
30080;SDS011;16902;50.816;12.828;2023-12-28T03:05:50;16.58;;;15.88;;
30080;SDS011;16902;50.816;12.828;2023-12-28T03:10:52;16.10;;;15.50;;
30080;SDS011;16902;50.816;12.828;2023-12-28T03:15:55;16.23;;;15.63;;
30080;SDS011;16902;50.816;12.828;2023-12-28T03:20:57;16.00;;;15.35;;
30080;SDS011;16902;50.816;12.828;2023-12-28T03:26:00;16.00;;;15.40;;
30080;SDS011;16902;50.816;12.828;2023-12-28T03:31:02;15.85;;;15.15;;
30080;SDS011;16902;50.816;12.828;2023-12-28T03:36:05;16.23;;;15.52;;
30080;SDS011;16902;50.816;12.828;2023-12-28T03:41:15;16.13;;;15.43;;
30080;SDS011;16902;50.816;12.828;2023-12-28T03:46:18;16.52;;;15.82;;
30080;SDS011;16902;50.816;12.828;2023-12-28T03:51:19;16.52;;;15.82;;
30080;SDS011;16902;50.816;12.828;2023-12-28T03:56:25;16.60;;;15.80;;
30080;SDS011;16902;50.816;12.828;2023-12-28T04:01:28;16.75;;;15.75;;
30080;SDS011;16902;50.816;12.828;2023-12-28T04:06:30;16.25;;;15.55;;
30080;SDS011;16902;50.816;12.828;2023-12-28T04:11:31;16.63;;;15.90;;
30080;SDS011;16902;50.816;12.828;2023-12-28T04:16:35;16.55;;;15.85;;
30080;SDS011;16902;50.816;12.828;2023-12-28T04:21:37;15.75;;;15.15;;
30080;SDS011;16902;50.816;12.828;2023-12-28T04:26:39;16.60;;;15.85;;
30080;SDS011;16902;50.816;12.828;2023-12-28T04:31:41;16.15;;;15.45;;
30080;SDS011;16902;50.816;12.828;2023-12-28T04:36:48;15.70;;;15.10;;
30080;SDS011;16902;50.816;12.828;2023-12-28T04:41:50;15.65;;;14.98;;
30080;SDS011;16902;50.816;12.828;2023-12-28T04:46:52;16.10;;;15.45;;
30080;SDS011;16902;50.816;12.828;2023-12-28T04:51:54;16.73;;;16.00;;
30080;SDS011;16902;50.816;12.828;2023-12-28T04:56:56;15.23;;;14.63;;
30080;SDS011;16902;50.816;12.828;2023-12-28T05:01:58;15.60;;;15.00;;
30080;SDS011;16902;50.816;12.828;2023-12-28T05:07:01;15.82;;;15.23;;
30080;SDS011;16902;50.816;12.828;2023-12-28T05:12:04;15.88;;;15.27;;
30080;SDS011;16902;50.816;12.828;2023-12-28T05:17:06;16.25;;;15.50;;
30080;SDS011;16902;50.816;12.828;2023-12-28T05:22:07;15.20;;;14.60;;
30080;SDS011;16902;50.816;12.828;2023-12-28T05:27:12;15.07;;;14.38;;
30080;SDS011;16902;50.816;12.828;2023-12-28T05:32:14;15.77;;;15.07;;
30080;SDS011;16902;50.816;12.828;2023-12-28T05:37:15;14.80;;;14.20;;
30080;SDS011;16902;50.816;12.828;2023-12-28T05:42:17;14.32;;;13.73;;
30080;SDS011;16902;50.816;12.828;2023-12-28T05:47:19;14.20;;;13.57;;
30080;SDS011;16902;50.816;12.828;2023-12-28T05:52:21;14.40;;;13.77;;
30080;SDS011;16902;50.816;12.828;2023-12-28T05:57:22;14.35;;;13.75;;
30080;SDS011;16902;50.816;12.828;2023-12-28T06:02:24;14.40;;;13.80;;
30080;SDS011;16902;50.816;12.828;2023-12-28T06:07:26;14.82;;;14.23;;
30080;SDS011;16902;50.816;12.828;2023-12-28T06:12:28;14.60;;;14.00;;
30080;SDS011;16902;50.816;12.828;2023-12-28T06:17:30;13.85;;;13.35;;
30080;SDS011;16902;50.816;12.828;2023-12-28T06:22:38;13.43;;;12.93;;
30080;SDS011;16902;50.816;12.828;2023-12-28T06:27:40;13.75;;;13.18;;
30080;SDS011;16902;50.816;12.828;2023-12-28T06:32:42;12.85;;;12.35;;
30080;SDS011;16902;50.816;12.828;2023-12-28T06:37:46;12.95;;;12.35;;
30080;SDS011;16902;50.816;12.828;2023-12-28T06:42:48;12.90;;;12.40;;
30080;SDS011;16902;50.816;12.828;2023-12-28T06:47:50;12.98;;;12.48;;
30080;SDS011;16902;50.816;12.828;2023-12-28T06:52:52;12.60;;;12.10;;
30080;SDS011;16902;50.816;12.828;2023-12-28T06:57:53;12.43;;;11.93;;
30080;SDS011;16902;50.816;12.828;2023-12-28T07:02:55;12.85;;;12.13;;
30080;SDS011;16902;50.816;12.828;2023-12-28T07:07:57;12.35;;;11.75;;
30080;SDS011;16902;50.816;12.828;2023-12-28T07:12:59;11.32;;;10.93;;
30080;SDS011;16902;50.816;12.828;2023-12-28T07:18:01;11.77;;;11.15;;
30080;SDS011;16902;50.816;12.828;2023-12-28T07:23:03;11.13;;;10.60;;
30080;SDS011;16902;50.816;12.828;2023-12-28T07:28:05;10.48;;;10.07;;
30080;SDS011;16902;50.816;12.828;2023-12-28T07:33:07;10.18;;;9.82;;
30080;SDS011;16902;50.816;12.828;2023-12-28T07:38:09;10.30;;;9.90;;
30080;SDS011;16902;50.816;12.828;2023-12-28T07:43:11;11.00;;;10.45;;
30080;SDS011;16902;50.816;12.828;2023-12-28T07:48:13;10.55;;;9.95;;
30080;SDS011;16902;50.816;12.828;2023-12-28T07:53:15;9.52;;;9.23;;
30080;SDS011;16902;50.816;12.828;2023-12-28T07:58:16;9.75;;;9.43;;
30080;SDS011;16902;50.816;12.828;2023-12-28T08:03:18;9.20;;;8.90;;
30080;SDS011;16902;50.816;12.828;2023-12-28T08:08:21;9.25;;;8.90;;
30080;SDS011;16902;50.816;12.828;2023-12-28T08:13:22;8.23;;;7.93;;
30080;SDS011;16902;50.816;12.828;2023-12-28T08:18:24;7.75;;;7.45;;
30080;SDS011;16902;50.816;12.828;2023-12-28T08:23:26;6.25;;;6.05;;
30080;SDS011;16902;50.816;12.828;2023-12-28T08:28:28;6.03;;;5.82;;
30080;SDS011;16902;50.816;12.828;2023-12-28T08:33:30;5.25;;;5.05;;
30080;SDS011;16902;50.816;12.828;2023-12-28T08:38:32;5.40;;;5.20;;
30080;SDS011;16902;50.816;12.828;2023-12-28T08:43:33;5.22;;;5.03;;
30080;SDS011;16902;50.816;12.828;2023-12-28T08:48:36;4.90;;;4.70;;
30080;SDS011;16902;50.816;12.828;2023-12-28T08:53:38;5.38;;;5.18;;
30080;SDS011;16902;50.816;12.828;2023-12-28T08:58:40;5.47;;;5.18;;
30080;SDS011;16902;50.816;12.828;2023-12-28T09:03:42;5.05;;;4.85;;
30080;SDS011;16902;50.816;12.828;2023-12-28T09:08:44;6.00;;;5.70;;
30080;SDS011;16902;50.816;12.828;2023-12-28T09:13:48;5.70;;;5.43;;
30080;SDS011;16902;50.816;12.828;2023-12-28T09:18:50;5.20;;;5.00;;
30080;SDS011;16902;50.816;12.828;2023-12-28T09:23:52;5.05;;;4.85;;
30080;SDS011;16902;50.816;12.828;2023-12-28T09:28:54;4.70;;;4.50;;
30080;SDS011;16902;50.816;12.828;2023-12-28T09:33:56;4.30;;;4.20;;
30080;SDS011;16902;50.816;12.828;2023-12-28T09:38:58;4.15;;;3.95;;
30080;SDS011;16902;50.816;12.828;2023-12-28T09:44:11;4.45;;;4.35;;
30080;SDS011;16902;50.816;12.828;2023-12-28T09:49:14;6.88;;;4.70;;
30080;SDS011;16902;50.816;12.828;2023-12-28T09:54:17;4.75;;;4.55;;
30080;SDS011;16902;50.816;12.828;2023-12-28T09:59:19;4.57;;;4.40;;
30080;SDS011;16902;50.816;12.828;2023-12-28T10:04:22;4.57;;;4.38;;
30080;SDS011;16902;50.816;12.828;2023-12-28T10:09:25;4.95;;;4.75;;
30080;SDS011;16902;50.816;12.828;2023-12-28T10:14:29;4.97;;;4.78;;
30080;SDS011;16902;50.816;12.828;2023-12-28T10:19:32;4.32;;;4.22;;
30080;SDS011;16902;50.816;12.828;2023-12-28T10:24:34;4.45;;;4.25;;
30080;SDS011;16902;50.816;12.828;2023-12-28T10:29:43;4.40;;;4.20;;
30080;SDS011;16902;50.816;12.828;2023-12-28T10:34:45;5.75;;;5.47;;
30080;SDS011;16902;50.816;12.828;2023-12-28T10:39:48;5.50;;;5.20;;
30080;SDS011;16902;50.816;12.828;2023-12-28T10:44:53;4.43;;;4.32;;
30080;SDS011;16902;50.816;12.828;2023-12-28T10:50:04;5.30;;;5.10;;
30080;SDS011;16902;50.816;12.828;2023-12-28T11:00:29;4.82;;;4.65;;
30080;SDS011;16902;50.816;12.828;2023-12-28T11:05:35;4.07;;;3.97;;
30080;SDS011;16902;50.816;12.828;2023-12-28T11:10:38;4.07;;;3.97;;
30080;SDS011;16902;50.816;12.828;2023-12-28T11:15:41;4.40;;;4.20;;
30080;SDS011;16902;50.816;12.828;2023-12-28T11:20:43;3.67;;;3.58;;
30080;SDS011;16902;50.816;12.828;2023-12-28T11:25:45;3.63;;;3.53;;
30080;SDS011;16902;50.816;12.828;2023-12-28T11:30:48;3.70;;;3.60;;
30080;SDS011;16902;50.816;12.828;2023-12-28T11:35:52;3.40;;;3.30;;
30080;SDS011;16902;50.816;12.828;2023-12-28T11:40:53;4.20;;;3.90;;
30080;SDS011;16902;50.816;12.828;2023-12-28T11:45:59;3.40;;;3.30;;
30080;SDS011;16902;50.816;12.828;2023-12-28T11:51:02;3.80;;;3.40;;
30080;SDS011;16902;50.816;12.828;2023-12-28T11:56:04;3.30;;;3.20;;
30080;SDS011;16902;50.816;12.828;2023-12-28T12:01:10;3.83;;;3.72;;
30080;SDS011;16902;50.816;12.828;2023-12-28T12:06:12;3.50;;;3.40;;
30080;SDS011;16902;50.816;12.828;2023-12-28T12:11:16;3.42;;;3.10;;
30080;SDS011;16902;50.816;12.828;2023-12-28T12:16:19;4.07;;;3.97;;
30080;SDS011;16902;50.816;12.828;2023-12-28T12:21:22;3.83;;;3.70;;
30080;SDS011;16902;50.816;12.828;2023-12-28T12:26:25;3.90;;;3.80;;
30080;SDS011;16902;50.816;12.828;2023-12-28T12:31:27;4.45;;;4.18;;
30080;SDS011;16902;50.816;12.828;2023-12-28T12:36:30;4.35;;;4.15;;
30080;SDS011;16902;50.816;12.828;2023-12-28T12:41:35;5.32;;;4.45;;
30080;SDS011;16902;50.816;12.828;2023-12-28T12:46:37;4.80;;;4.60;;
30080;SDS011;16902;50.816;12.828;2023-12-28T12:51:39;4.68;;;4.40;;
30080;SDS011;16902;50.816;12.828;2023-12-28T12:56:42;4.43;;;4.13;;
30080;SDS011;16902;50.816;12.828;2023-12-28T13:01:47;4.00;;;3.90;;
30080;SDS011;16902;50.816;12.828;2023-12-28T13:06:50;4.38;;;4.18;;
30080;SDS011;16902;50.816;12.828;2023-12-28T13:11:52;4.05;;;3.95;;
30080;SDS011;16902;50.816;12.828;2023-12-28T13:16:54;3.92;;;3.72;;
30080;SDS011;16902;50.816;12.828;2023-12-28T13:21:59;4.40;;;4.20;;
30080;SDS011;16902;50.816;12.828;2023-12-28T13:27:01;3.92;;;3.80;;
30080;SDS011;16902;50.816;12.828;2023-12-28T13:32:03;3.78;;;3.67;;
30080;SDS011;16902;50.816;12.828;2023-12-28T13:37:05;3.90;;;3.70;;
30080;SDS011;16902;50.816;12.828;2023-12-28T13:42:07;3.83;;;3.72;;
30080;SDS011;16902;50.816;12.828;2023-12-28T13:47:09;4.05;;;3.85;;
30080;SDS011;16902;50.816;12.828;2023-12-28T13:52:11;3.92;;;3.83;;
30080;SDS011;16902;50.816;12.828;2023-12-28T13:57:13;4.00;;;3.90;;
30080;SDS011;16902;50.816;12.828;2023-12-28T14:02:15;4.13;;;4.03;;
30080;SDS011;16902;50.816;12.828;2023-12-28T14:07:17;4.03;;;3.90;;
30080;SDS011;16902;50.816;12.828;2023-12-28T14:12:19;3.83;;;3.72;;
30080;SDS011;16902;50.816;12.828;2023-12-28T14:17:21;4.13;;;4.00;;
30080;SDS011;16902;50.816;12.828;2023-12-28T14:22:23;3.90;;;3.80;;
30080;SDS011;16902;50.816;12.828;2023-12-28T14:27:25;4.25;;;4.15;;
30080;SDS011;16902;50.816;12.828;2023-12-28T14:32:30;4.55;;;4.20;;
30080;SDS011;16902;50.816;12.828;2023-12-28T14:37:32;4.30;;;4.20;;
30080;SDS011;16902;50.816;12.828;2023-12-28T14:42:34;4.35;;;4.15;;
30080;SDS011;16902;50.816;12.828;2023-12-28T14:47:36;3.88;;;3.78;;
30080;SDS011;16902;50.816;12.828;2023-12-28T14:52:38;3.75;;;3.63;;
30080;SDS011;16902;50.816;12.828;2023-12-28T14:57:44;3.53;;;3.42;;
30080;SDS011;16902;50.816;12.828;2023-12-28T15:02:46;4.03;;;3.80;;
30080;SDS011;16902;50.816;12.828;2023-12-28T15:07:48;3.88;;;3.78;;
30080;SDS011;16902;50.816;12.828;2023-12-28T15:12:50;3.60;;;3.40;;
30080;SDS011;16902;50.816;12.828;2023-12-28T15:17:52;3.40;;;3.30;;
30080;SDS011;16902;50.816;12.828;2023-12-28T15:22:55;3.13;;;3.03;;
30080;SDS011;16902;50.816;12.828;2023-12-28T15:27:57;3.30;;;3.20;;
30080;SDS011;16902;50.816;12.828;2023-12-28T15:33:00;3.55;;;3.45;;
30080;SDS011;16902;50.816;12.828;2023-12-28T15:38:02;3.05;;;2.95;;
30080;SDS011;16902;50.816;12.828;2023-12-28T15:43:04;3.65;;;3.38;;
30080;SDS011;16902;50.816;12.828;2023-12-28T15:48:06;2.80;;;2.70;;
30080;SDS011;16902;50.816;12.828;2023-12-28T15:53:08;3.03;;;2.85;;
30080;SDS011;16902;50.816;12.828;2023-12-28T15:58:10;2.85;;;2.65;;
30080;SDS011;16902;50.816;12.828;2023-12-28T16:03:12;1.85;;;1.85;;
30080;SDS011;16902;50.816;12.828;2023-12-28T16:08:14;2.45;;;2.35;;
30080;SDS011;16902;50.816;12.828;2023-12-28T16:13:16;2.70;;;2.60;;
30080;SDS011;16902;50.816;12.828;2023-12-28T16:18:18;3.28;;;2.50;;
30080;SDS011;16902;50.816;12.828;2023-12-28T16:23:21;2.80;;;2.70;;
30080;SDS011;16902;50.816;12.828;2023-12-28T16:28:23;2.35;;;2.25;;
30080;SDS011;16902;50.816;12.828;2023-12-28T16:33:25;4.35;;;4.03;;
30080;SDS011;16902;50.816;12.828;2023-12-28T16:38:27;2.20;;;2.00;;
30080;SDS011;16902;50.816;12.828;2023-12-28T16:43:29;3.20;;;2.83;;
30080;SDS011;16902;50.816;12.828;2023-12-28T16:48:32;2.20;;;2.10;;
30080;SDS011;16902;50.816;12.828;2023-12-28T16:53:34;1.92;;;1.88;;
30080;SDS011;16902;50.816;12.828;2023-12-28T16:58:36;2.17;;;2.08;;
30080;SDS011;16902;50.816;12.828;2023-12-28T17:03:38;2.10;;;2.00;;
30080;SDS011;16902;50.816;12.828;2023-12-28T17:08:40;1.80;;;1.70;;
30080;SDS011;16902;50.816;12.828;2023-12-28T17:13:43;3.42;;;2.42;;
30080;SDS011;16902;50.816;12.828;2023-12-28T17:18:45;6.15;;;3.60;;
30080;SDS011;16902;50.816;12.828;2023-12-28T17:23:48;1.90;;;1.90;;
30080;SDS011;16902;50.816;12.828;2023-12-28T17:28:53;3.38;;;3.08;;
30080;SDS011;16902;50.816;12.828;2023-12-28T17:33:59;1.65;;;1.58;;
30080;SDS011;16902;50.816;12.828;2023-12-28T17:39:02;3.30;;;2.75;;
30080;SDS011;16902;50.816;12.828;2023-12-28T17:44:14;1.92;;;1.83;;
30080;SDS011;16902;50.816;12.828;2023-12-28T17:49:28;1.90;;;1.80;;
30080;SDS011;16902;50.816;12.828;2023-12-28T17:54:31;1.90;;;1.80;;
30080;SDS011;16902;50.816;12.828;2023-12-28T17:59:33;2.40;;;2.20;;
30080;SDS011;16902;50.816;12.828;2023-12-28T18:04:35;3.33;;;2.42;;
30080;SDS011;16902;50.816;12.828;2023-12-28T18:09:37;2.05;;;1.95;;
30080;SDS011;16902;50.816;12.828;2023-12-28T18:14:42;2.08;;;1.98;;
30080;SDS011;16902;50.816;12.828;2023-12-28T18:19:44;1.98;;;1.88;;
30080;SDS011;16902;50.816;12.828;2023-12-28T18:24:47;1.25;;;1.25;;
30080;SDS011;16902;50.816;12.828;2023-12-28T18:29:51;2.00;;;1.90;;
30080;SDS011;16902;50.816;12.828;2023-12-28T18:34:54;1.63;;;1.58;;
30080;SDS011;16902;50.816;12.828;2023-12-28T18:39:56;3.35;;;1.83;;
30080;SDS011;16902;50.816;12.828;2023-12-28T18:44:58;1.40;;;1.30;;
30080;SDS011;16902;50.816;12.828;2023-12-28T18:50:00;1.67;;;1.67;;
30080;SDS011;16902;50.816;12.828;2023-12-28T18:55:03;1.80;;;1.70;;
30080;SDS011;16902;50.816;12.828;2023-12-28T19:00:06;1.33;;;1.33;;
30080;SDS011;16902;50.816;12.828;2023-12-28T19:05:08;1.85;;;1.67;;
30080;SDS011;16902;50.816;12.828;2023-12-28T19:10:10;1.67;;;1.58;;
30080;SDS011;16902;50.816;12.828;2023-12-28T19:15:13;1.50;;;1.50;;
30080;SDS011;16902;50.816;12.828;2023-12-28T19:20:18;1.65;;;1.60;;
30080;SDS011;16902;50.816;12.828;2023-12-28T19:25:20;1.23;;;1.23;;
30080;SDS011;16902;50.816;12.828;2023-12-28T19:30:22;3.00;;;1.55;;
30080;SDS011;16902;50.816;12.828;2023-12-28T19:35:25;1.50;;;1.50;;
30080;SDS011;16902;50.816;12.828;2023-12-28T19:40:27;1.55;;;1.52;;
30080;SDS011;16902;50.816;12.828;2023-12-28T19:45:29;1.70;;;1.60;;
30080;SDS011;16902;50.816;12.828;2023-12-28T19:50:30;1.23;;;1.23;;
30080;SDS011;16902;50.816;12.828;2023-12-28T19:55:32;1.15;;;1.15;;
30080;SDS011;16902;50.816;12.828;2023-12-28T20:00:35;1.60;;;1.60;;
30080;SDS011;16902;50.816;12.828;2023-12-28T20:05:40;1.40;;;1.40;;
30080;SDS011;16902;50.816;12.828;2023-12-28T20:10:42;1.20;;;1.20;;
30080;SDS011;16902;50.816;12.828;2023-12-28T20:15:44;1.52;;;1.52;;
30080;SDS011;16902;50.816;12.828;2023-12-28T20:20:48;1.48;;;1.48;;
30080;SDS011;16902;50.816;12.828;2023-12-28T20:25:52;1.55;;;1.45;;
30080;SDS011;16902;50.816;12.828;2023-12-28T20:30:54;1.50;;;1.40;;
30080;SDS011;16902;50.816;12.828;2023-12-28T20:35:56;1.60;;;1.50;;
30080;SDS011;16902;50.816;12.828;2023-12-28T20:40:58;1.35;;;1.35;;
30080;SDS011;16902;50.816;12.828;2023-12-28T20:46:01;1.48;;;1.48;;
30080;SDS011;16902;50.816;12.828;2023-12-28T20:51:07;1.35;;;1.35;;
30080;SDS011;16902;50.816;12.828;2023-12-28T20:56:10;1.45;;;1.45;;
30080;SDS011;16902;50.816;12.828;2023-12-28T21:01:12;1.40;;;1.40;;
30080;SDS011;16902;50.816;12.828;2023-12-28T21:06:15;1.48;;;1.42;;
30080;SDS011;16902;50.816;12.828;2023-12-28T21:11:17;1.75;;;1.70;;
30080;SDS011;16902;50.816;12.828;2023-12-28T21:16:19;2.03;;;1.92;;
30080;SDS011;16902;50.816;12.828;2023-12-28T21:21:23;1.73;;;1.73;;
30080;SDS011;16902;50.816;12.828;2023-12-28T21:26:25;1.52;;;1.52;;
30080;SDS011;16902;50.816;12.828;2023-12-28T21:31:27;1.60;;;1.60;;
30080;SDS011;16902;50.816;12.828;2023-12-28T21:36:30;1.65;;;1.65;;
30080;SDS011;16902;50.816;12.828;2023-12-28T21:41:34;1.65;;;1.65;;
30080;SDS011;16902;50.816;12.828;2023-12-28T21:46:36;1.90;;;1.90;;
30080;SDS011;16902;50.816;12.828;2023-12-28T21:51:40;1.90;;;1.80;;
30080;SDS011;16902;50.816;12.828;2023-12-28T21:56:43;2.08;;;1.98;;
30080;SDS011;16902;50.816;12.828;2023-12-28T22:01:45;1.73;;;1.73;;
30080;SDS011;16902;50.816;12.828;2023-12-28T22:06:48;1.83;;;1.83;;
30080;SDS011;16902;50.816;12.828;2023-12-28T22:11:53;1.70;;;1.70;;
30080;SDS011;16902;50.816;12.828;2023-12-28T22:16:55;1.67;;;1.67;;
30080;SDS011;16902;50.816;12.828;2023-12-28T22:21:56;1.60;;;1.60;;
30080;SDS011;16902;50.816;12.828;2023-12-28T22:26:58;1.92;;;1.92;;
30080;SDS011;16902;50.816;12.828;2023-12-28T22:32:00;2.13;;;2.03;;
30080;SDS011;16902;50.816;12.828;2023-12-28T22:37:03;2.20;;;2.10;;
30080;SDS011;16902;50.816;12.828;2023-12-28T22:42:06;2.20;;;2.10;;
30080;SDS011;16902;50.816;12.828;2023-12-28T22:47:08;2.85;;;2.13;;
30080;SDS011;16902;50.816;12.828;2023-12-28T22:52:10;2.05;;;1.95;;
30080;SDS011;16902;50.816;12.828;2023-12-28T22:57:17;2.10;;;1.90;;
30080;SDS011;16902;50.816;12.828;2023-12-28T23:02:19;1.60;;;1.60;;
30080;SDS011;16902;50.816;12.828;2023-12-28T23:07:20;1.88;;;1.77;;
30080;SDS011;16902;50.816;12.828;2023-12-28T23:12:22;1.80;;;1.70;;
30080;SDS011;16902;50.816;12.828;2023-12-28T23:17:24;1.48;;;1.48;;
30080;SDS011;16902;50.816;12.828;2023-12-28T23:22:26;1.55;;;1.48;;
30080;SDS011;16902;50.816;12.828;2023-12-28T23:27:30;1.20;;;1.20;;
30080;SDS011;16902;50.816;12.828;2023-12-28T23:32:32;1.95;;;1.58;;
30080;SDS011;16902;50.816;12.828;2023-12-28T23:37:34;1.70;;;1.60;;
30080;SDS011;16902;50.816;12.828;2023-12-28T23:42:37;1.42;;;1.38;;
30080;SDS011;16902;50.816;12.828;2023-12-28T23:47:39;1.45;;;1.35;;
30080;SDS011;16902;50.816;12.828;2023-12-28T23:52:41;1.48;;;1.48;;
30080;SDS011;16902;50.816;12.828;2023-12-28T23:57:43;1.38;;;1.27;;
